createdAt,value
2018-03-16T00:03:24.973Z,17.70
2018-03-16T00:13:26.598Z,21.40
2018-03-16T00:23:28.886Z,21.30
2018-03-16T00:33:30.441Z,22.17
2018-03-16T00:43:32.038Z,22.73
2018-03-16T00:53:33.539Z,25.30
2018-03-16T01:03:35.067Z,25.53
2018-03-16T01:13:36.601Z,28.50
2018-03-16T01:23:38.181Z,30.97
2018-03-16T01:33:39.777Z,28.20
2018-03-16T01:43:41.334Z,33.40
2018-03-16T01:53:42.854Z,34.90
2018-03-16T02:03:44.400Z,32.00
2018-03-16T02:13:45.957Z,31.70
2018-03-16T02:23:47.496Z,30.57
2018-03-16T02:33:49.101Z,32.20
2018-03-16T02:43:50.617Z,29.60
2018-03-16T02:53:53.126Z,28.60
2018-03-16T03:03:54.639Z,27.93
2018-03-16T03:13:57.838Z,29.07
2018-03-16T03:23:59.406Z,29.20
2018-03-16T03:34:00.953Z,27.83
2018-03-16T03:44:02.482Z,29.20
2018-03-16T03:54:04.745Z,26.33
2018-03-16T04:04:06.277Z,21.10
2018-03-16T04:14:07.861Z,23.47
2018-03-16T04:24:09.476Z,20.80
2018-03-16T04:34:11.031Z,23.40
2018-03-16T04:44:12.564Z,25.30
2018-03-16T04:54:14.109Z,26.40
2018-03-16T05:04:15.651Z,26.63
2018-03-16T05:14:17.164Z,29.17
2018-03-16T05:24:18.694Z,26.30
2018-03-16T05:34:20.289Z,27.90
2018-03-16T05:44:22.616Z,26.40
2018-03-16T05:54:24.872Z,26.13
2018-03-16T06:04:26.454Z,25.00
2018-03-16T06:14:28.192Z,25.40
2018-03-16T06:24:29.737Z,28.00
2018-03-16T06:34:32.028Z,27.37
2018-03-16T06:44:33.787Z,24.20
2018-03-16T06:54:35.305Z,22.77
2018-03-16T07:04:36.865Z,21.67
2018-03-16T07:14:38.615Z,19.23
2018-03-16T07:24:40.170Z,18.87
2018-03-16T07:34:42.454Z,18.90
2018-03-16T07:44:44.014Z,22.10
2018-03-16T07:54:45.550Z,22.40
2018-03-16T08:04:47.108Z,21.17
2018-03-16T08:14:48.632Z,21.33
2018-03-16T08:24:50.368Z,20.80
2018-03-16T08:34:51.916Z,23.33
2018-03-16T08:44:53.487Z,21.23
2018-03-16T08:54:55.775Z,17.70
2018-03-16T09:04:57.322Z,17.37
2018-03-16T09:14:58.862Z,15.40
2018-03-16T09:25:00.429Z,14.93
2018-03-16T09:35:02.033Z,13.40
2018-03-16T09:45:03.604Z,13.20
2018-03-16T09:55:23.641Z,10.83
2018-03-16T10:05:25.278Z,11.80
2018-03-16T10:15:26.799Z,11.93
2018-03-16T10:25:28.310Z,8.67
2018-03-16T10:35:29.857Z,8.53
2018-03-16T10:45:31.478Z,7.10
2018-03-16T10:55:33.036Z,8.20
2018-03-16T11:26:33.930Z,6.30
2018-03-16T11:36:35.505Z,5.63
2018-03-16T11:46:37.049Z,4.87
2018-03-16T11:56:39.417Z,5.33
2018-03-16T12:06:40.973Z,5.30
2018-03-16T12:16:43.238Z,4.63
2018-03-16T12:26:44.770Z,4.50
2018-03-16T12:36:46.333Z,3.93
2018-03-16T12:46:48.893Z,5.37
2018-03-16T12:56:50.407Z,3.50
2018-03-16T13:06:52.721Z,3.23
2018-03-16T13:16:54.819Z,2.67
2018-03-16T13:26:56.659Z,2.20
2018-03-16T13:36:58.498Z,2.33
2018-03-16T13:47:00.637Z,2.53
2018-03-16T13:57:02.473Z,3.30
2018-03-16T14:07:05.196Z,2.90
2018-03-16T14:17:07.245Z,3.90
2018-03-16T14:27:09.514Z,4.20
2018-03-16T14:37:13.556Z,5.13
2018-03-16T14:47:15.338Z,4.27
2018-03-16T14:57:17.371Z,17.27
2018-03-16T15:07:19.165Z,14.50
2018-03-16T15:17:21.298Z,18.10
2018-03-16T15:27:23.427Z,18.03
2018-03-16T15:37:25.236Z,18.00
2018-03-16T15:47:27.943Z,20.03
2018-03-16T15:57:30.069Z,18.70
2018-03-16T16:07:32.688Z,18.70
2018-03-16T16:17:34.406Z,18.10
2018-03-16T16:27:36.891Z,18.57
2018-03-16T16:37:38.951Z,20.33
2018-03-16T16:47:41.448Z,16.83
2018-03-16T16:57:43.171Z,25.27
2018-03-16T17:07:44.795Z,19.77
2018-03-16T17:17:46.315Z,21.87
2018-03-16T17:27:47.897Z,19.53
2018-03-16T17:37:49.715Z,18.57
2018-03-16T17:47:52.597Z,18.53
2018-03-16T17:57:54.869Z,17.30
2018-03-16T18:08:00.208Z,15.93
2018-03-16T18:18:04.467Z,12.87
2018-03-16T18:28:06.971Z,13.63
2018-03-16T18:38:09.340Z,14.07
2018-03-16T18:48:10.980Z,12.97
2018-03-16T18:58:12.877Z,13.83
2018-03-16T19:08:15.517Z,11.93
2018-03-16T19:18:17.611Z,7.90
2018-03-16T19:28:19.450Z,7.70
2018-03-16T19:38:21.170Z,9.13
2018-03-16T19:48:24.988Z,8.30
2018-03-16T19:58:27.907Z,9.23
2018-03-16T20:08:29.883Z,9.57
2018-03-16T20:18:32.546Z,10.00
2018-03-16T20:28:34.517Z,9.33
2018-03-16T20:38:37.180Z,8.40
2018-03-16T20:48:38.820Z,9.87
2018-03-16T20:58:40.709Z,10.73
2018-03-16T21:08:42.806Z,11.70
2018-03-16T21:18:45.663Z,12.10
2018-03-16T21:28:48.654Z,12.00
2018-03-16T21:38:50.710Z,13.00
2018-03-16T21:48:52.516Z,12.63
2018-03-16T21:58:55.228Z,15.10
2018-03-16T22:08:57.080Z,14.93
2018-03-16T22:19:00.045Z,17.33
2018-03-16T22:29:02.029Z,16.07
2018-03-16T22:39:03.864Z,17.43
2018-03-16T22:49:05.988Z,15.23
2018-03-16T22:59:08.069Z,19.00
2018-03-16T23:09:10.699Z,18.47
2018-03-16T23:19:12.522Z,19.73
2018-03-16T23:29:16.102Z,19.13
2018-03-16T23:39:18.730Z,17.43
2018-03-16T23:49:20.471Z,18.00
2018-03-16T23:59:23.233Z,16.90
